createdAt,value
2022-08-05T00:00:10.606Z,6.60
2022-08-05T00:01:20.513Z,5.00
2022-08-05T00:02:11.487Z,5.60
2022-08-05T00:03:09.567Z,6.10
2022-08-05T00:04:10.566Z,5.00
2022-08-05T00:05:09.566Z,5.80
2022-08-05T00:06:27.733Z,6.80
2022-08-05T00:07:27.164Z,4.60
2022-08-05T00:08:19.813Z,5.40
2022-08-05T00:09:12.823Z,5.30
2022-08-05T00:10:09.502Z,4.20
2022-08-05T00:11:20.579Z,7.70
2022-08-05T00:12:13.217Z,4.60
2022-08-05T00:13:09.487Z,4.80
2022-08-05T00:14:12.675Z,6.00
2022-08-05T00:15:54.165Z,5.70
2022-08-05T00:16:12.148Z,5.50
2022-08-05T00:17:19.477Z,6.10
2022-08-05T00:18:10.417Z,4.90
2022-08-05T00:19:10.397Z,5.30
2022-08-05T00:20:09.467Z,6.80
2022-08-05T00:21:09.379Z,6.60
2022-08-05T00:22:11.512Z,5.00
2022-08-05T00:23:12.962Z,7.70
2022-08-05T00:24:11.086Z,4.70
2022-08-05T00:25:10.416Z,5.00
2022-08-05T00:26:09.397Z,5.50
2022-08-05T00:27:10.507Z,10.70
2022-08-05T00:28:10.298Z,5.30
2022-08-05T00:29:09.309Z,5.80
2022-08-05T00:30:11.271Z,5.80
2022-08-05T00:31:09.267Z,5.40
2022-08-05T00:32:12.426Z,5.20
2022-08-05T00:33:15.635Z,7.10
2022-08-05T00:34:53.692Z,5.10
2022-08-05T00:35:10.232Z,5.70
2022-08-05T00:36:16.062Z,5.70
2022-08-05T00:37:14.339Z,5.30
2022-08-05T00:38:09.415Z,7.30
2022-08-05T00:39:13.534Z,6.40
2022-08-05T00:40:09.521Z,4.70
2022-08-05T00:41:11.745Z,5.20
2022-08-05T00:42:09.148Z,5.90
2022-08-05T00:43:09.149Z,5.10
2022-08-05T00:44:10.130Z,5.10
2022-08-05T00:45:11.766Z,5.70
2022-08-05T00:46:09.152Z,6.80
2022-08-05T00:47:09.099Z,7.10
2022-08-05T00:48:09.504Z,5.10
2022-08-05T00:49:09.070Z,4.80
2022-08-05T00:50:10.069Z,6.40
2022-08-05T00:51:51.695Z,6.60
2022-08-05T00:52:10.090Z,6.70
2022-08-05T00:53:09.897Z,5.70
2022-08-05T00:54:10.019Z,4.70
2022-08-05T00:55:09.009Z,5.00
2022-08-05T00:56:09.009Z,6.30
2022-08-05T00:57:09.020Z,4.20
2022-08-05T00:58:11.152Z,7.30
2022-08-05T00:59:08.959Z,6.60
2022-08-05T01:00:11.193Z,6.20
2022-08-05T01:01:09.626Z,6.90
2022-08-05T01:02:08.941Z,6.80
2022-08-05T01:03:08.924Z,7.10
2022-08-05T01:04:13.653Z,6.30
2022-08-05T01:05:10.318Z,4.50
2022-08-05T01:06:11.240Z,6.30
2022-08-05T01:07:13.592Z,6.00
2022-08-05T01:08:40.112Z,5.90
2022-08-05T01:09:09.859Z,5.60
2022-08-05T01:10:09.170Z,6.40
2022-08-05T01:11:08.860Z,5.00
2022-08-05T01:12:18.064Z,5.10
2022-08-05T01:13:12.947Z,6.10
2022-08-05T01:14:09.810Z,5.40
2022-08-05T01:15:36.249Z,5.80
2022-08-05T01:16:09.782Z,5.70
2022-08-05T01:17:08.811Z,7.50
2022-08-05T01:18:08.761Z,6.30
2022-08-05T01:19:08.752Z,6.70
2022-08-05T01:20:08.741Z,6.90
2022-08-05T01:21:08.729Z,5.00
2022-08-05T01:22:10.859Z,6.10
2022-08-05T01:24:19.248Z,6.60
2022-08-05T01:25:19.249Z,6.10
2022-08-05T01:26:19.188Z,5.30
2022-08-05T01:27:19.686Z,6.90
2022-08-05T01:28:19.197Z,6.00
2022-08-05T01:29:19.268Z,7.50
2022-08-05T01:30:19.162Z,7.70
2022-08-05T01:31:20.149Z,6.70
2022-08-05T01:32:19.132Z,6.40
2022-08-05T01:33:19.639Z,8.00
2022-08-05T01:34:19.139Z,9.00
2022-08-05T01:35:52.148Z,6.60
2022-08-05T01:36:21.096Z,6.20
2022-08-05T01:37:25.061Z,8.40
2022-08-05T01:38:27.318Z,7.70
2022-08-05T01:39:36.100Z,6.50
2022-08-05T01:40:29.094Z,6.60
2022-08-05T01:41:19.077Z,8.70
2022-08-05T01:42:19.020Z,6.30
2022-08-05T01:43:22.053Z,7.40
2022-08-05T01:44:19.001Z,7.30
2022-08-05T01:45:18.984Z,9.50
2022-08-05T01:46:41.470Z,7.50
2022-08-05T01:47:19.999Z,8.20
2022-08-05T01:48:18.950Z,9.40
2022-08-05T01:49:23.996Z,8.60
2022-08-05T01:50:19.940Z,7.50
2022-08-05T01:51:19.956Z,6.90
2022-08-05T01:52:24.749Z,10.90
2022-08-05T01:53:54.395Z,7.40
2022-08-05T01:54:19.889Z,6.60
2022-08-05T01:55:19.880Z,8.40
2022-08-05T01:58:10.037Z,7.50
2022-08-05T01:58:12.769Z,7.90
2022-08-05T01:58:40.512Z,7.80
2022-08-05T01:59:19.842Z,9.20
2022-08-05T02:00:18.852Z,8.80
2022-08-05T02:01:25.294Z,7.00
2022-08-05T02:02:19.911Z,8.60
2022-08-05T02:03:24.210Z,7.90
2022-08-05T02:04:19.781Z,8.60
2022-08-05T02:05:18.768Z,11.80
2022-08-05T02:06:37.808Z,8.10
2022-08-05T02:07:22.043Z,9.10
2022-08-05T02:08:28.901Z,8.70
2022-08-05T02:09:20.643Z,9.80
2022-08-05T02:10:18.710Z,7.70
2022-08-05T02:11:23.706Z,6.60
2022-08-05T02:12:18.692Z,8.40
2022-08-05T02:13:18.690Z,8.50
2022-08-05T02:14:18.707Z,8.90
2022-08-05T02:15:19.892Z,6.00
2022-08-05T02:16:18.688Z,9.00
2022-08-05T02:18:27.608Z,10.00
2022-08-05T02:18:30.718Z,9.00
2022-08-05T02:19:19.620Z,9.30
2022-08-05T02:20:20.574Z,8.10
2022-08-05T02:21:18.600Z,9.70
2022-08-05T02:22:26.438Z,9.20
2022-08-05T02:23:19.581Z,9.20
2022-08-05T02:24:18.559Z,9.40
2022-08-05T02:25:18.564Z,8.70
2022-08-05T02:26:18.579Z,9.80
2022-08-05T02:27:18.582Z,10.80
2022-08-05T02:28:29.083Z,8.80
2022-08-05T02:29:21.625Z,8.20
2022-08-05T02:30:18.500Z,8.30
2022-08-05T02:31:21.031Z,8.70
2022-08-05T02:32:19.828Z,7.80
2022-08-05T02:33:35.656Z,10.80
2022-08-05T02:34:19.461Z,7.50
2022-08-05T02:35:19.160Z,8.70
2022-08-05T02:36:19.433Z,9.10
2022-08-05T02:37:18.431Z,8.30
2022-08-05T02:38:19.469Z,9.80
2022-08-05T02:39:18.443Z,8.90
2022-08-05T02:40:18.382Z,9.40
2022-08-05T02:41:18.445Z,9.20
2022-08-05T02:42:26.073Z,9.10
2022-08-05T02:43:19.361Z,8.30
2022-08-05T02:44:18.351Z,7.80
2022-08-05T02:45:18.349Z,8.50
2022-08-05T02:46:18.322Z,9.50
2022-08-05T02:47:19.381Z,8.90
2022-08-05T02:48:18.317Z,8.70
2022-08-05T02:49:18.301Z,10.00
2022-08-05T02:50:18.312Z,10.50
2022-08-05T02:51:18.273Z,10.40
2022-08-05T02:52:25.844Z,10.80
2022-08-05T02:53:23.162Z,11.70
2022-08-05T02:54:35.982Z,12.70
2022-08-05T02:55:53.849Z,9.20
2022-08-05T02:56:19.218Z,10.90
2022-08-05T02:58:20.020Z,10.90
2022-08-05T02:58:20.362Z,10.70
2022-08-05T02:59:18.222Z,8.60
2022-08-05T03:00:18.173Z,11.10
2022-08-05T03:01:19.569Z,10.80
2022-08-05T03:02:18.167Z,12.60
2022-08-05T03:03:18.165Z,10.60
2022-08-05T03:04:18.163Z,11.80
2022-08-05T03:05:18.130Z,10.60
2022-08-05T03:06:55.332Z,10.00
2022-08-05T03:07:59.162Z,10.70
2022-08-05T03:08:27.007Z,11.20
2022-08-05T03:09:27.109Z,11.50
2022-08-05T03:10:22.112Z,13.70
2022-08-05T03:11:54.363Z,13.80
2022-08-05T03:12:19.051Z,12.30
2022-08-05T03:13:18.044Z,15.60
2022-08-05T03:14:18.063Z,14.30
2022-08-05T03:15:18.202Z,14.90
2022-08-05T03:16:18.005Z,13.40
2022-08-05T03:17:18.016Z,17.10
2022-08-05T03:18:17.991Z,15.20
2022-08-05T03:19:33.895Z,17.30
2022-08-05T03:20:19.035Z,18.00
2022-08-05T03:21:17.952Z,16.50
2022-08-05T03:22:18.920Z,15.20
2022-08-05T03:23:18.933Z,15.90
2022-08-05T03:24:23.617Z,13.70
2022-08-05T03:26:02.575Z,14.70
2022-08-05T03:26:31.612Z,16.20
2022-08-05T03:27:18.903Z,18.50
2022-08-05T03:28:18.636Z,14.10
2022-08-05T03:29:18.157Z,19.30
2022-08-05T03:30:17.852Z,14.40
2022-08-05T03:31:56.083Z,15.40
2022-08-05T03:32:19.334Z,14.80
2022-08-05T03:33:17.833Z,16.80
2022-08-05T03:34:17.813Z,14.90
2022-08-05T03:35:17.803Z,14.50
2022-08-05T03:36:17.834Z,16.40
2022-08-05T03:37:18.784Z,16.10
2022-08-05T03:38:17.770Z,14.60
2022-08-05T03:39:20.106Z,15.40
2022-08-05T03:40:31.320Z,18.30
2022-08-05T03:41:18.806Z,15.50
2022-08-05T03:42:17.722Z,14.30
2022-08-05T03:44:08.107Z,17.80
2022-08-05T03:44:19.874Z,14.20
2022-08-05T03:45:21.399Z,15.80
2022-08-05T03:46:18.682Z,14.40
2022-08-05T03:47:17.710Z,15.40
2022-08-05T03:48:21.995Z,15.90
2022-08-05T03:49:18.650Z,15.60
2022-08-05T03:50:17.639Z,15.30
2022-08-05T03:52:38.382Z,22.00
2022-08-05T03:52:48.835Z,32.80
2022-08-05T03:55:34.547Z,17.30
2022-08-05T03:55:52.303Z,18.00
2022-08-05T03:56:05.120Z,17.60
2022-08-05T03:56:30.614Z,16.90
2022-08-05T03:57:18.566Z,17.40
2022-08-05T03:58:17.582Z,16.50
2022-08-05T03:59:20.214Z,14.60
2022-08-05T04:00:17.531Z,16.10
2022-08-05T04:01:20.926Z,14.60
2022-08-05T04:02:38.229Z,15.80
2022-08-05T04:03:28.917Z,13.60
2022-08-05T04:04:21.216Z,15.50
2022-08-05T04:05:17.483Z,14.40
2022-08-05T04:06:17.466Z,16.20
2022-08-05T04:07:17.499Z,17.40
2022-08-05T04:08:30.168Z,15.90
2022-08-05T04:09:20.321Z,15.70
2022-08-05T04:10:18.418Z,14.10
2022-08-05T04:11:17.422Z,18.10
2022-08-05T04:12:24.488Z,14.70
2022-08-05T04:13:18.417Z,15.50
2022-08-05T04:14:18.201Z,14.50
2022-08-05T04:15:17.384Z,18.40
2022-08-05T04:16:25.121Z,16.50
2022-08-05T04:17:18.387Z,16.80
2022-08-05T04:18:20.460Z,15.10
2022-08-05T04:19:18.336Z,18.60
2022-08-05T04:20:18.312Z,18.10
2022-08-05T04:21:19.908Z,16.60
2022-08-05T04:22:20.426Z,17.50
2022-08-05T04:23:17.975Z,17.10
2022-08-05T04:24:19.366Z,19.50
2022-08-05T04:25:17.303Z,17.00
2022-08-05T04:26:17.510Z,16.50
2022-08-05T04:27:17.263Z,16.60
2022-08-05T04:28:17.425Z,18.40
2022-08-05T04:29:17.228Z,16.20
2022-08-05T04:30:17.207Z,17.50
2022-08-05T04:31:17.195Z,16.60
2022-08-05T04:32:28.089Z,18.90
2022-08-05T04:33:36.364Z,16.90
2022-08-05T04:34:32.614Z,20.30
2022-08-05T04:35:19.491Z,19.10
2022-08-05T04:36:49.421Z,18.40
2022-08-05T04:38:00.945Z,22.00
2022-08-05T04:38:18.115Z,18.40
2022-08-05T04:39:17.210Z,21.40
2022-08-05T04:40:19.494Z,23.40
2022-08-05T04:41:17.085Z,23.10
2022-08-05T04:42:25.501Z,27.40
2022-08-05T04:43:17.066Z,27.00
2022-08-05T04:44:21.463Z,30.90
2022-08-05T04:45:30.989Z,28.10
2022-08-05T04:46:28.158Z,30.50
2022-08-05T04:47:18.747Z,29.80
2022-08-05T04:48:27.073Z,30.70
2022-08-05T04:49:18.005Z,34.40
2022-08-05T04:50:37.278Z,29.70
2022-08-05T04:51:17.976Z,32.80
2022-08-05T04:52:16.985Z,27.10
2022-08-05T04:53:16.957Z,30.50
2022-08-05T04:54:16.940Z,30.00
2022-08-05T04:55:16.936Z,31.20
2022-08-05T04:56:35.069Z,28.10
2022-08-05T04:57:17.950Z,29.80
2022-08-05T04:58:16.918Z,25.80
2022-08-05T04:59:36.648Z,24.70
2022-08-05T05:00:17.887Z,29.20
2022-08-05T05:02:06.263Z,27.30
2022-08-05T05:02:41.245Z,28.00
2022-08-05T05:03:18.791Z,27.80
2022-08-05T05:04:16.856Z,28.90
2022-08-05T05:05:28.455Z,33.10
2022-08-05T05:06:39.125Z,30.70
2022-08-05T05:07:17.797Z,30.20
2022-08-05T05:08:26.709Z,29.90
2022-08-05T05:09:18.482Z,27.00
2022-08-05T05:10:16.764Z,29.40
2022-08-05T05:11:16.747Z,30.10
2022-08-05T05:12:16.745Z,29.70
2022-08-05T05:13:16.736Z,28.10
2022-08-05T05:14:16.724Z,26.40
2022-08-05T05:15:17.771Z,26.70
2022-08-05T05:16:19.751Z,24.40
2022-08-05T05:17:22.816Z,25.20
2022-08-05T05:18:30.967Z,24.80
2022-08-05T05:19:19.393Z,26.20
2022-08-05T05:20:17.665Z,23.70
2022-08-05T05:21:16.667Z,25.50
2022-08-05T05:22:24.219Z,25.40
2022-08-05T05:23:19.869Z,24.40
2022-08-05T05:24:17.719Z,27.00
2022-08-05T05:25:17.518Z,24.90
2022-08-05T05:26:16.587Z,26.00
2022-08-05T05:27:16.587Z,27.00
2022-08-05T05:28:16.567Z,23.80
2022-08-05T05:29:16.559Z,25.80
2022-08-05T05:30:30.717Z,26.90
2022-08-05T05:31:18.560Z,27.10
2022-08-05T05:32:16.527Z,25.00
2022-08-05T05:33:17.541Z,24.20
2022-08-05T05:34:20.011Z,23.70
2022-08-05T05:35:19.970Z,21.90
2022-08-05T05:36:16.478Z,24.00
2022-08-05T05:37:16.474Z,23.70
2022-08-05T05:38:27.229Z,24.70
2022-08-05T05:39:19.140Z,22.70
2022-08-05T05:40:16.427Z,28.70
2022-08-05T05:41:16.519Z,23.10
2022-08-05T05:42:16.414Z,24.00
2022-08-05T05:43:16.414Z,21.70
2022-08-05T05:44:37.502Z,23.90
2022-08-05T05:45:17.388Z,24.30
2022-08-05T05:46:18.028Z,24.70
2022-08-05T05:47:21.969Z,24.90
2022-08-05T05:48:17.357Z,24.00
2022-08-05T05:49:22.302Z,22.30
2022-08-05T05:50:19.830Z,22.30
2022-08-05T05:51:16.327Z,20.20
2022-08-05T05:52:26.454Z,24.20
2022-08-05T05:53:21.362Z,24.70
2022-08-05T05:54:16.288Z,23.60
2022-08-05T05:55:16.279Z,22.60
2022-08-05T05:56:16.269Z,22.60
2022-08-05T05:57:19.323Z,22.70
2022-08-05T05:58:16.248Z,26.20
2022-08-05T05:59:16.265Z,25.10
2022-08-05T06:00:16.227Z,23.30
2022-08-05T06:01:16.219Z,24.70
2022-08-05T06:02:16.228Z,21.00
2022-08-05T06:03:39.899Z,20.80
2022-08-05T06:04:17.273Z,24.40
2022-08-05T06:05:16.692Z,25.50
2022-08-05T06:06:16.173Z,23.30
2022-08-05T06:07:16.234Z,21.70
2022-08-05T06:08:16.170Z,21.30
2022-08-05T06:09:26.530Z,20.60
2022-08-05T06:10:17.118Z,20.80
2022-08-05T06:11:16.119Z,20.80
2022-08-05T06:12:16.111Z,20.80
2022-08-05T06:13:16.088Z,22.30
2022-08-05T06:14:16.122Z,21.50
2022-08-05T06:15:23.921Z,23.70
2022-08-05T06:16:30.284Z,22.30
2022-08-05T06:17:22.672Z,26.30
2022-08-05T06:18:17.040Z,24.10
2022-08-05T06:19:26.038Z,23.00
2022-08-05T06:20:18.905Z,20.70
2022-08-05T06:21:18.460Z,23.70
2022-08-05T06:22:15.990Z,22.70
2022-08-05T06:23:15.969Z,23.80
2022-08-05T06:24:15.979Z,25.60
2022-08-05T06:25:24.321Z,21.40
2022-08-05T06:26:21.659Z,21.60
2022-08-05T06:28:09.098Z,23.40
2022-08-05T06:28:21.405Z,21.20
2022-08-05T06:29:25.267Z,24.10
2022-08-05T06:30:19.926Z,21.30
2022-08-05T06:31:17.939Z,23.20
2022-08-05T06:32:25.292Z,25.70
2022-08-05T06:33:19.319Z,21.30
2022-08-05T06:34:16.874Z,21.10
2022-08-05T06:36:02.858Z,19.80
2022-08-05T06:36:16.840Z,22.40
2022-08-05T06:37:15.904Z,21.60
2022-08-05T06:38:16.984Z,19.80
2022-08-05T06:39:15.861Z,22.90
2022-08-05T06:40:18.415Z,19.10
2022-08-05T06:41:16.782Z,18.90
2022-08-05T06:42:15.780Z,19.40
2022-08-05T06:43:51.620Z,24.40
2022-08-05T06:44:16.821Z,18.80
2022-08-05T06:45:20.832Z,20.00
2022-08-05T06:46:16.730Z,22.70
2022-08-05T06:47:29.982Z,16.80
2022-08-05T06:48:47.353Z,21.10
2022-08-05T06:49:16.699Z,21.30
2022-08-05T06:50:17.292Z,20.70
2022-08-05T06:51:26.646Z,23.80
2022-08-05T06:52:36.710Z,20.30
2022-08-05T06:53:22.617Z,20.00
2022-08-05T06:54:19.119Z,18.30
2022-08-05T06:55:15.641Z,17.90
2022-08-05T06:56:26.285Z,20.10
2022-08-05T06:57:57.691Z,23.60
2022-08-05T06:58:29.238Z,19.00
2022-08-05T06:59:16.580Z,21.30
2022-08-05T07:00:24.510Z,21.10
2022-08-05T07:01:16.691Z,21.30
2022-08-05T07:02:15.564Z,22.70
2022-08-05T07:03:16.741Z,17.40
2022-08-05T07:04:15.549Z,19.10
2022-08-05T07:05:20.078Z,15.80
2022-08-05T07:06:15.520Z,16.20
2022-08-05T07:07:15.543Z,15.30
2022-08-05T07:08:16.491Z,14.40
2022-08-05T07:09:15.481Z,14.40
2022-08-05T07:10:16.238Z,14.50
2022-08-05T07:11:15.965Z,12.60
2022-08-05T07:12:15.456Z,15.10
2022-08-05T07:13:15.441Z,15.40
2022-08-05T07:14:20.384Z,12.90
2022-08-05T07:15:34.057Z,13.40
2022-08-05T07:17:55.912Z,12.40
2022-08-05T07:18:00.161Z,12.40
2022-08-05T07:18:27.232Z,14.70
2022-08-05T07:19:31.825Z,14.70
2022-08-05T07:20:32.939Z,14.50
2022-08-05T07:21:16.352Z,13.70
2022-08-05T07:22:16.343Z,14.20
2022-08-05T07:23:26.458Z,15.20
2022-08-05T07:24:16.375Z,17.90
2022-08-05T07:25:54.085Z,20.00
2022-08-05T07:26:20.934Z,16.30
2022-08-05T07:27:16.284Z,16.00
2022-08-05T07:28:17.474Z,13.60
2022-08-05T07:29:15.261Z,16.60
2022-08-05T07:30:30.268Z,15.80
2022-08-05T07:31:16.234Z,16.30
2022-08-05T07:32:15.268Z,13.80
2022-08-05T07:33:16.497Z,16.50
2022-08-05T07:34:15.505Z,16.60
2022-08-05T07:36:03.641Z,14.40
2022-08-05T07:36:20.627Z,17.20
2022-08-05T07:37:16.214Z,15.80
2022-08-05T07:38:32.969Z,15.30
2022-08-05T07:39:24.692Z,14.70
2022-08-05T07:40:27.149Z,15.70
2022-08-05T07:42:09.069Z,16.00
2022-08-05T07:42:16.308Z,16.40
2022-08-05T07:43:20.751Z,15.50
2022-08-05T07:44:19.316Z,13.90
2022-08-05T07:45:15.116Z,14.30
2022-08-05T07:46:24.818Z,15.10
2022-08-05T07:47:16.087Z,13.80
2022-08-05T07:48:15.055Z,17.80
2022-08-05T07:49:16.074Z,17.20
2022-08-05T07:50:16.561Z,14.10
2022-08-05T07:51:23.824Z,13.50
2022-08-05T07:52:16.056Z,14.00
2022-08-05T07:53:15.007Z,13.20
2022-08-05T07:54:14.991Z,12.90
2022-08-05T07:55:16.105Z,13.10
2022-08-05T07:56:39.105Z,13.50
2022-08-05T07:57:41.341Z,13.80
2022-08-05T07:58:54.523Z,15.70
2022-08-05T07:59:15.934Z,12.80
2022-08-05T08:00:14.925Z,15.70
2022-08-05T08:01:14.948Z,12.50
2022-08-05T08:02:15.942Z,12.70
2022-08-05T08:03:16.041Z,14.80
2022-08-05T08:04:14.878Z,13.40
2022-08-05T08:05:14.862Z,12.40
2022-08-05T08:06:14.864Z,13.70
2022-08-05T08:07:14.979Z,12.80
2022-08-05T08:08:14.925Z,13.90
2022-08-05T08:09:14.815Z,13.10
2022-08-05T08:10:14.814Z,11.30
2022-08-05T08:11:16.146Z,13.00
2022-08-05T08:12:35.485Z,12.80
2022-08-05T08:13:15.806Z,10.30
2022-08-05T08:14:18.418Z,14.90
2022-08-05T08:15:15.735Z,11.20
2022-08-05T08:16:35.252Z,11.90
2022-08-05T08:17:16.423Z,12.10
2022-08-05T08:18:14.787Z,13.40
2022-08-05T08:20:21.495Z,13.20
2022-08-05T08:20:42.449Z,8.50
2022-08-05T08:21:15.951Z,13.90
2022-08-05T08:22:15.901Z,12.90
2022-08-05T08:24:01.654Z,13.30
2022-08-05T08:24:15.665Z,12.20
2022-08-05T08:25:16.266Z,10.60
2022-08-05T08:26:14.643Z,11.90
2022-08-05T08:27:16.632Z,9.50
2022-08-05T08:28:18.743Z,14.70
2022-08-05T08:30:03.207Z,10.90
2022-08-05T08:30:29.918Z,12.90
2022-08-05T08:31:17.427Z,14.50
2022-08-05T08:32:15.139Z,11.30
2022-08-05T08:33:14.583Z,11.50
2022-08-05T08:34:14.733Z,11.20
2022-08-05T08:35:14.539Z,10.90
2022-08-05T08:36:48.889Z,10.30
2022-08-05T08:37:18.885Z,13.70
2022-08-05T08:38:16.287Z,12.30
2022-08-05T08:39:15.862Z,11.80
2022-08-05T08:40:14.494Z,11.40
2022-08-05T08:41:14.477Z,11.70
2022-08-05T08:42:32.461Z,9.50
2022-08-05T08:45:01.570Z,10.70
2022-08-05T08:45:17.856Z,9.80
2022-08-05T08:45:24.391Z,9.60
2022-08-05T08:46:15.640Z,11.60
2022-08-05T08:47:21.732Z,8.80
2022-08-05T08:48:36.083Z,11.00
2022-08-05T08:50:07.725Z,8.60
2022-08-05T08:50:31.077Z,9.80
2022-08-05T08:51:30.638Z,12.20
2022-08-05T08:52:15.453Z,10.70
2022-08-05T08:53:14.377Z,13.20
2022-08-05T08:54:14.340Z,10.60
2022-08-05T08:55:14.349Z,9.80
2022-08-05T08:56:15.316Z,11.00
2022-08-05T08:57:14.297Z,10.80
2022-08-05T08:58:14.328Z,11.60
2022-08-05T08:59:14.916Z,12.70
2022-08-05T09:00:15.726Z,11.80
2022-08-05T09:01:15.894Z,13.60
2022-08-05T09:02:14.249Z,8.60
2022-08-05T09:03:16.167Z,12.80
2022-08-05T09:04:14.298Z,9.70
2022-08-05T09:05:17.677Z,10.00
2022-08-05T09:06:18.531Z,10.60
2022-08-05T09:07:28.201Z,10.30
2022-08-05T09:08:15.188Z,9.30
2022-08-05T09:09:14.168Z,10.00
2022-08-05T09:10:14.387Z,9.60
2022-08-05T09:11:14.148Z,10.50
2022-08-05T09:12:20.406Z,9.30
2022-08-05T09:13:15.178Z,11.40
2022-08-05T09:14:58.480Z,9.50
2022-08-05T09:15:15.145Z,7.90
2022-08-05T09:16:14.660Z,9.20
2022-08-05T09:17:40.089Z,11.70
2022-08-05T09:18:15.098Z,12.10
2022-08-05T09:19:14.690Z,10.40
2022-08-05T09:20:36.258Z,13.40
2022-08-05T09:21:20.806Z,11.80
2022-08-05T09:22:23.268Z,11.70
2022-08-05T09:23:19.756Z,9.20
2022-08-05T09:24:15.426Z,9.40
2022-08-05T09:25:24.417Z,11.80
2022-08-05T09:26:21.121Z,10.30
2022-08-05T09:27:18.770Z,8.70
2022-08-05T09:28:14.971Z,10.70
2022-08-05T09:29:18.712Z,9.90
2022-08-05T09:30:16.506Z,8.80
2022-08-05T09:32:38.827Z,11.40
2022-08-05T09:32:39.941Z,9.90
2022-08-05T09:33:17.056Z,10.70
2022-08-05T09:34:13.907Z,14.00
2022-08-05T09:35:26.465Z,9.00
2022-08-05T09:36:16.694Z,9.70
2022-08-05T09:37:15.088Z,11.50
2022-08-05T09:38:18.681Z,9.60
2022-08-05T09:39:18.328Z,10.40
2022-08-05T09:40:14.977Z,9.40
2022-08-05T09:41:16.056Z,9.60
2022-08-05T09:42:22.968Z,11.20
2022-08-05T09:43:14.809Z,12.50
2022-08-05T09:44:13.798Z,9.50
2022-08-05T09:46:04.707Z,11.60
2022-08-05T09:46:15.508Z,11.20
2022-08-05T09:47:15.690Z,10.60
2022-08-05T09:48:13.749Z,9.70
2022-08-05T09:49:19.551Z,11.10
2022-08-05T09:50:18.103Z,12.00
2022-08-05T09:51:15.908Z,7.70
2022-08-05T09:52:13.709Z,9.80
2022-08-05T09:53:22.681Z,11.20
2022-08-05T09:54:14.716Z,10.70
2022-08-05T09:55:58.616Z,9.40
2022-08-05T09:56:14.689Z,12.60
2022-08-05T09:57:20.620Z,11.20
2022-08-05T09:58:14.651Z,8.40
2022-08-05T09:59:16.916Z,8.80
2022-08-05T10:00:13.657Z,8.60
2022-08-05T10:01:15.295Z,9.60
2022-08-05T10:02:14.633Z,10.90
2022-08-05T10:03:14.616Z,9.20
2022-08-05T10:04:13.593Z,14.50
2022-08-05T10:05:13.558Z,9.90
2022-08-05T10:06:15.528Z,10.30
2022-08-05T10:07:20.134Z,8.50
2022-08-05T10:08:36.277Z,9.40
2022-08-05T10:09:25.035Z,8.70
2022-08-05T10:10:15.726Z,9.60
2022-08-05T10:11:13.499Z,9.90
2022-08-05T10:12:18.804Z,9.20
2022-08-05T10:13:14.604Z,9.80
2022-08-05T10:14:13.469Z,8.50
2022-08-05T10:15:13.451Z,7.90
2022-08-05T10:16:13.480Z,10.30
2022-08-05T10:17:14.130Z,8.30
2022-08-05T10:18:14.431Z,12.20
2022-08-05T10:19:13.418Z,8.90
2022-08-05T10:20:13.465Z,8.60
2022-08-05T10:21:15.742Z,9.50
2022-08-05T10:22:15.666Z,8.30
2022-08-05T10:23:33.994Z,11.60
2022-08-05T10:24:15.143Z,6.60
2022-08-05T10:25:14.341Z,6.90
2022-08-05T10:26:14.540Z,7.10
2022-08-05T10:27:13.359Z,9.20
2022-08-05T10:28:19.131Z,9.00
2022-08-05T10:29:14.309Z,7.40
2022-08-05T10:31:19.944Z,7.30
2022-08-05T10:32:48.396Z,7.40
2022-08-05T10:33:01.178Z,7.80
2022-08-05T10:33:14.705Z,7.30
2022-08-05T10:34:13.241Z,7.90
2022-08-05T10:35:13.241Z,7.80
2022-08-05T10:36:13.228Z,6.00
2022-08-05T10:37:13.218Z,7.40
2022-08-05T10:38:13.280Z,8.10
2022-08-05T10:39:15.277Z,7.90
2022-08-05T10:40:17.792Z,9.30
2022-08-05T10:41:13.903Z,8.10
2022-08-05T10:42:13.190Z,7.40
2022-08-05T10:43:13.164Z,6.40
2022-08-05T10:44:13.153Z,5.70
2022-08-05T10:45:23.613Z,6.90
2022-08-05T10:46:14.152Z,6.10
2022-08-05T10:47:26.830Z,7.70
2022-08-05T10:48:30.011Z,6.20
2022-08-05T10:49:16.574Z,8.00
2022-08-05T10:50:33.286Z,7.70
2022-08-05T10:51:22.101Z,6.70
2022-08-05T10:52:14.094Z,5.50
2022-08-05T10:53:13.058Z,5.60
2022-08-05T10:54:28.713Z,5.30
2022-08-05T10:55:16.087Z,4.80
2022-08-05T10:56:21.568Z,4.90
2022-08-05T10:57:14.014Z,5.90
2022-08-05T10:58:14.934Z,5.10
2022-08-05T11:00:04.211Z,5.80
2022-08-05T11:00:19.275Z,6.90
2022-08-05T11:01:15.034Z,5.10
2022-08-05T11:02:14.438Z,5.30
2022-08-05T11:03:25.169Z,5.60
2022-08-05T11:04:13.953Z,4.20
2022-08-05T11:05:13.547Z,3.10
2022-08-05T11:06:15.406Z,5.10
2022-08-05T11:07:12.902Z,3.70
2022-08-05T11:08:27.653Z,4.10
2022-08-05T11:09:16.895Z,3.40
2022-08-05T11:10:12.910Z,3.40
2022-08-05T11:11:16.692Z,5.50
2022-08-05T11:12:12.891Z,5.20
2022-08-05T11:13:12.830Z,5.50
2022-08-05T11:14:12.812Z,5.90
2022-08-05T11:15:20.331Z,5.30
2022-08-05T11:16:13.821Z,5.10
2022-08-05T11:17:58.034Z,5.70
2022-08-05T11:18:14.034Z,4.70
2022-08-05T11:20:16.669Z,5.90
2022-08-05T11:20:18.267Z,6.00
2022-08-05T11:21:12.753Z,4.80
2022-08-05T11:22:12.781Z,6.20
2022-08-05T11:23:12.760Z,4.80
2022-08-05T11:24:30.014Z,5.80
2022-08-05T11:26:03.429Z,4.10
2022-08-05T11:26:13.717Z,6.20
2022-08-05T11:27:12.696Z,4.60
2022-08-05T11:28:17.177Z,5.70
2022-08-05T11:29:14.317Z,6.10
2022-08-05T11:30:12.643Z,6.80
2022-08-05T11:31:12.635Z,9.90
2022-08-05T11:32:13.637Z,7.30
2022-08-05T11:33:13.756Z,9.80
2022-08-05T11:34:14.734Z,7.70
2022-08-05T11:35:15.471Z,8.30
2022-08-05T11:36:12.605Z,7.20
2022-08-05T11:38:30.691Z,8.20
2022-08-05T11:38:30.741Z,7.20
2022-08-05T11:39:13.750Z,8.60
2022-08-05T11:40:12.653Z,7.70
2022-08-05T11:41:57.897Z,8.30
2022-08-05T11:42:18.541Z,7.70
2022-08-05T11:43:13.494Z,13.10
2022-08-05T11:44:12.529Z,9.70
2022-08-05T11:45:14.369Z,7.20
2022-08-05T11:46:15.151Z,8.00
2022-08-05T11:47:17.365Z,6.70
2022-08-05T11:48:13.463Z,6.80
2022-08-05T11:49:12.434Z,9.70
2022-08-05T11:50:14.119Z,8.40
2022-08-05T11:51:12.414Z,7.60
2022-08-05T11:52:13.413Z,7.40
2022-08-05T11:53:12.397Z,11.20
2022-08-05T11:54:13.941Z,9.50
2022-08-05T11:55:12.653Z,12.60
2022-08-05T11:56:12.388Z,15.70
2022-08-05T11:57:25.217Z,11.50
2022-08-05T11:58:13.466Z,12.30
2022-08-05T11:59:13.805Z,11.20
2022-08-05T12:00:12.325Z,10.10
2022-08-05T12:01:12.346Z,13.40
2022-08-05T12:02:29.936Z,8.20
2022-08-05T12:03:13.355Z,9.30
2022-08-05T12:04:12.275Z,7.20
2022-08-05T12:05:17.960Z,10.20
2022-08-05T12:06:13.245Z,7.30
2022-08-05T12:07:12.246Z,8.40
2022-08-05T12:08:18.241Z,8.30
2022-08-05T12:09:20.048Z,9.10
2022-08-05T12:10:13.292Z,9.30
2022-08-05T12:11:20.214Z,11.70
2022-08-05T12:12:13.185Z,7.70
2022-08-05T12:13:15.919Z,10.30
2022-08-05T12:14:13.166Z,8.60
2022-08-05T12:15:16.653Z,9.60
2022-08-05T12:16:14.567Z,10.30
2022-08-05T12:18:00.673Z,9.50
2022-08-05T12:18:13.501Z,11.40
2022-08-05T12:20:25.421Z,10.90
2022-08-05T12:20:25.516Z,8.90
2022-08-05T12:21:13.096Z,9.50
2022-08-05T12:22:12.080Z,9.40
2022-08-05T12:23:12.103Z,11.30
2022-08-05T12:24:12.065Z,10.70
2022-08-05T12:25:14.470Z,8.90
2022-08-05T12:26:12.036Z,11.60
2022-08-05T12:27:25.188Z,8.30
2022-08-05T12:28:15.774Z,8.40
2022-08-05T12:29:16.338Z,8.60
2022-08-05T12:30:15.482Z,10.70
2022-08-05T12:31:11.988Z,10.40
2022-08-05T12:32:12.966Z,7.70
2022-08-05T12:33:27.297Z,8.40
2022-08-05T12:34:20.386Z,7.40
2022-08-05T12:35:12.946Z,9.00
2022-08-05T12:36:11.969Z,8.30
2022-08-05T12:37:16.945Z,8.40
2022-08-05T12:38:12.907Z,9.50
2022-08-05T12:39:11.986Z,7.10
2022-08-05T12:40:26.462Z,8.70
2022-08-05T12:41:13.799Z,7.20
2022-08-05T12:42:14.945Z,8.20
2022-08-05T12:43:11.858Z,6.60
2022-08-05T12:44:14.270Z,6.30
2022-08-05T12:45:11.838Z,7.90
2022-08-05T12:46:12.349Z,7.70
2022-08-05T12:47:12.305Z,7.80
2022-08-05T12:48:27.798Z,7.60
2022-08-05T12:49:13.608Z,8.80
2022-08-05T12:50:11.778Z,8.60
2022-08-05T12:51:21.671Z,11.10
2022-08-05T12:52:22.828Z,10.10
2022-08-05T12:53:12.775Z,7.50
2022-08-05T12:54:14.719Z,10.10
2022-08-05T12:55:12.748Z,10.00
2022-08-05T12:56:34.666Z,8.10
2022-08-05T12:57:12.888Z,8.20
2022-08-05T12:58:49.663Z,7.90
2022-08-05T12:59:14.044Z,8.00
2022-08-05T13:02:00.105Z,10.10
2022-08-05T13:02:02.433Z,7.40
2022-08-05T13:02:14.007Z,10.70
2022-08-05T13:03:12.052Z,7.00
2022-08-05T13:04:11.636Z,7.20
2022-08-05T13:05:14.389Z,7.60